Time;durP1;ratioP1;P1;durP2;ratioP2;P2;SDS_P1;SDS_P2;PMS_P1;PMS_P2;Temp;Humidity;BMP_temperature;BMP_pressure;BME280_temperature;BME280_humidity;BME280_pressure;Samples;Min_cycle;Max_cycle;Signal;HPM_P1;HPM_P2
2021/12/10 00:00:23;;;;;;;14.57;10.50;;;;;;;-15.01;87.71;101487.91;6185543;23;20044;-80
2021/12/10 00:02:50;;;;;;;11.90;10.52;;;;;;;-15.03;86.76;101491.94;6195228;23;20029;-80
2021/12/10 00:05:19;;;;;;;7.25;6.57;;;;;;;-15.05;86.93;101496.81;6194424;23;20480;-82
2021/12/10 00:07:45;;;;;;;19.25;11.88;;;;;;;-15.11;87.24;101486.38;6161528;23;20021;-80
2021/12/10 00:10:16;;;;;;;12.20;10.95;;;;;;;-15.05;86.88;101499.34;6187519;23;20077;-80
2021/12/10 00:12:49;;;;;;;11.90;9.77;;;;;;;-15.12;86.88;101497.16;6162513;23;20028;-80
2021/12/10 00:15:17;;;;;;;9.65;7.75;;;;;;;-15.19;87.16;101482.47;6184820;23;20039;-79
2021/12/10 00:17:43;;;;;;;13.48;11.07;;;;;;;-15.13;86.65;101485.41;6131761;23;20032;-78
2021/12/10 00:20:11;;;;;;;16.02;9.60;;;;;;;-15.07;87.24;101505.88;6132382;23;20036;-79
2021/12/10 00:22:41;;;;;;;9.02;6.68;;;;;;;-15.22;87.19;101489.75;6156135;23;20461;-79
2021/12/10 00:25:12;;;;;;;14.73;9.60;;;;;;;-15.17;86.65;101508.47;6155546;23;20107;-79
2021/12/10 00:27:40;;;;;;;16.05;11.48;;;;;;;-15.20;86.75;101509.88;6181074;23;20017;-79
2021/12/10 00:30:11;;;;;;;14.50;8.90;;;;;;;-15.19;86.92;101512.50;6154191;23;20024;-79
2021/12/10 00:32:43;;;;;;;8.63;7.35;;;;;;;-15.19;86.73;101512.50;6133100;23;20044;-80
2021/12/10 00:35:14;;;;;;;10.07;8.45;;;;;;;-15.31;86.94;101491.53;6162491;23;20021;-81
2021/12/10 00:37:40;;;;;;;13.65;9.57;;;;;;;-15.34;87.05;101503.00;6135227;23;20023;-79
2021/12/10 00:40:07;;;;;;;20.30;11.93;;;;;;;-15.32;86.87;101507.34;6159385;23;20634;-80
2021/12/10 00:42:34;;;;;;;15.38;9.75;;;;;;;-15.28;86.92;101504.31;6184460;23;20025;-80
2021/12/10 00:45:00;;;;;;;8.05;6.82;;;;;;;-15.35;87.17;101494.63;6156488;23;20013;-79
2021/12/10 00:47:27;;;;;;;12.10;9.23;;;;;;;-15.38;86.96;101491.88;6155407;23;20021;-80
2021/12/10 00:49:53;;;;;;;12.60;9.57;;;;;;;-15.43;86.92;101493.16;6132212;23;20036;-79
2021/12/10 00:52:19;;;;;;;9.88;8.88;;;;;;;-15.41;86.52;101507.53;6156538;23;20017;-80
2021/12/10 00:54:45;;;;;;;8.63;7.80;;;;;;;-15.48;86.83;101504.50;6157130;23;20168;-80
2021/12/10 00:57:12;;;;;;;15.38;8.75;;;;;;;-15.57;86.39;101494.66;6181244;23;20017;-79
2021/12/10 00:59:38;;;;;;;13.80;10.20;;;;;;;-15.59;87.21;101498.69;6155997;23;20079;-80
2021/12/10 01:02:10;;;;;;;14.75;9.82;;;;;;;-15.58;86.57;101507.06;6130444;23;20017;-80
2021/12/10 01:04:37;;;;;;;17.13;12.80;;;;;;;-15.56;86.80;101505.53;6180648;23;20024;-79
2021/12/10 01:07:07;;;;;;;18.67;11.50;;;;;;;-15.63;86.55;101493.34;6129602;23;20025;-79
2021/12/10 01:09:35;;;;;;;10.53;9.40;;;;;;;-15.61;86.91;101504.34;6130726;23;20032;-79
2021/12/10 01:12:14;;;;;;;14.05;10.70;;;;;;;-15.55;87.06;101517.31;6179391;23;20155;-80
2021/12/10 01:25:40;;;;;;;15.10;9.05;;;;;;;-15.79;86.76;101516.31;6159434;23;20017;-80
2021/12/10 01:28:08;;;;;;;9.05;7.35;;;;;;;-15.76;86.16;101538.19;6107859;23;20021;-79
2021/12/10 01:30:36;;;;;;;16.23;13.18;;;;;;;-15.84;86.47;101527.63;6183340;23;20025;-79
2021/12/10 01:33:05;;;;;;;13.52;10.57;;;;;;;-15.78;86.51;101538.09;6193892;23;20045;-79
2021/12/10 01:35:36;;;;;;;6.80;6.22;;;;;;;-15.90;86.42;101538.78;6155240;23;20021;-78
2021/12/10 01:38:03;;;;;;;6.53;5.97;;;;;;;-15.97;86.32;101525.81;6107311;23;20036;-79
2021/12/10 01:40:30;;;;;;;14.23;9.70;;;;;;;-15.97;86.41;101527.44;6132417;23;20021;-79
2021/12/10 01:43:06;;;;;;;8.68;7.65;;;;;;;-15.95;86.58;101544.28;6108254;23;20052;-79
2021/12/10 01:45:44;;;;;;;4.97;4.53;;;;;;;-16.05;86.88;101535.97;6109252;23;20021;-78
2021/12/10 01:48:20;;;;;;;8.23;6.28;;;;;;;-16.02;86.65;101543.69;6183888;23;20021;-79
2021/12/10 01:50:46;;;;;;;7.25;6.57;;;;;;;-16.04;86.92;101536.09;6158014;23;20412;-79
2021/12/10 01:53:14;;;;;;;5.78;5.22;;;;;;;-16.11;86.94;101536.38;6155250;23;20403;-77
2021/12/10 01:55:43;;;;;;;12.50;9.85;;;;;;;-16.04;87.52;101543.59;6133734;23;20102;-79
2021/12/10 01:58:10;;;;;;;8.70;6.80;;;;;;;-16.14;87.49;101531.13;6131608;23;20116;-78
2021/12/10 02:00:38;;;;;;;14.75;9.90;;;;;;;-16.01;87.43;101543.81;6154749;23;20021;-78
2021/12/10 02:03:05;;;;;;;10.45;7.03;;;;;;;-16.03;86.65;101550.31;6181024;23;20021;-79
2021/12/10 02:05:31;;;;;;;15.05;8.07;;;;;;;-16.06;86.87;101540.09;6154844;23;20028;-79
2021/12/10 02:07:58;;;;;;;9.80;6.22;;;;;;;-16.12;86.87;101537.13;6155314;23;20024;-79
2021/12/10 02:10:28;;;;;;;8.70;6.20;;;;;;;-16.14;87.05;101541.13;6132325;23;20488;-81
2021/12/10 02:12:54;;;;;;;11.30;7.13;;;;;;;-16.17;86.86;101550.03;6136959;23;20093;-80
2021/12/10 02:15:22;;;;;;;7.05;4.90;;;;;;;-16.16;87.08;101561.78;6160129;23;20785;-80
2021/12/10 02:17:49;;;;;;;6.90;6.28;;;;;;;-16.23;87.39;101540.44;6136165;23;20032;-80
2021/12/10 02:20:28;;;;;;;8.50;7.45;;;;;;;-16.24;87.36;101541.16;6159880;23;20032;-80
2021/12/10 02:22:54;;;;;;;9.15;7.38;;;;;;;-16.14;87.59;101556.13;6181420;23;20048;-79
2021/12/10 02:25:23;;;;;;;12.13;9.32;;;;;;;-16.10;87.15;101563.13;6180857;23;20103;-79
2021/12/10 02:27:49;;;;;;;17.15;10.63;;;;;;;-16.12;87.03;101548.72;6181020;23;20031;-79
2021/12/10 02:30:16;;;;;;;15.98;8.80;;;;;;;-16.16;87.11;101542.63;6155820;23;20405;-76
2021/12/10 02:32:42;;;;;;;17.83;10.20;;;;;;;-16.10;87.06;101552.25;6181324;23;20465;-80
2021/12/10 02:35:11;;;;;;;8.00;6.13;;;;;;;-16.24;86.82;101533.69;6185201;23;20515;-80
2021/12/10 02:37:41;;;;;;;13.88;8.93;;;;;;;-16.23;86.83;101547.94;6134849;23;20024;-79
2021/12/10 02:40:07;;;;;;;16.20;9.88;;;;;;;-16.28;86.73;101543.31;6132450;23;20013;-80
2021/12/10 02:42:33;;;;;;;19.27;12.90;;;;;;;-16.24;86.99;101548.66;6183765;23;20120;-80
2021/12/10 02:44:59;;;;;;;7.20;6.60;;;;;;;-16.29;87.34;101537.44;6179185;23;20017;-77
2021/12/10 02:47:26;;;;;;;9.13;7.22;;;;;;;-16.32;86.91;101539.69;6155009;23;20404;-75
2021/12/10 02:49:55;;;;;;;13.38;7.78;;;;;;;-16.31;87.08;101543.94;6181146;23;20575;-76
2021/12/10 02:52:24;;;;;;;7.85;7.10;;;;;;;-16.25;87.40;101546.03;6185629;23;20024;-79
2021/12/10 02:54:50;;;;;;;16.50;12.90;;;;;;;-16.24;87.08;101543.66;6156624;23;20100;-73
2021/12/10 02:57:18;;;;;;;5.68;5.28;;;;;;;-16.30;86.78;101533.19;6130410;23;20079;-76
2021/12/10 02:59:44;;;;;;;6.30;5.82;;;;;;;-16.24;86.97;101533.69;6160607;23;20328;-79
2021/12/10 03:02:14;;;;;;;11.57;8.57;;;;;;;-16.28;87.24;101528.31;6147793;23;20021;-82
2021/12/10 03:04:42;;;;;;;12.38;10.68;;;;;;;-16.23;87.04;101535.44;6189758;23;20024;-79
2021/12/10 03:07:12;;;;;;;18.40;9.95;;;;;;;-16.24;87.21;101543.66;6181405;23;20028;-81
2021/12/10 03:09:42;;;;;;;8.85;6.00;;;;;;;-16.26;86.50;101544.31;6195071;23;20024;-80
2021/12/10 03:12:10;;;;;;;13.15;8.38;;;;;;;-16.32;86.65;101546.31;6185340;23;20028;-78
2021/12/10 03:14:37;;;;;;;18.60;10.75;;;;;;;-16.39;86.78;101542.47;6154791;23;20091;-78
2021/12/10 03:17:12;;;;;;;19.75;11.63;;;;;;;-16.38;86.40;101548.31;6133014;23;20029;-78
2021/12/10 03:19:38;;;;;;;9.57;7.78;;;;;;;-16.39;86.34;101564.09;6180876;23;20492;-78
2021/12/10 03:22:05;;;;;;;15.88;10.27;;;;;;;-16.45;86.59;101556.97;6108158;23;20483;-77
2021/12/10 03:24:31;;;;;;;14.10;9.98;;;;;;;-16.48;86.21;101551.72;6107536;23;20032;-78
2021/12/10 03:26:58;;;;;;;21.85;13.27;;;;;;;-16.29;86.77;101576.56;6129226;23;20108;-77
2021/12/10 03:29:26;;;;;;;20.63;10.88;;;;;;;-16.36;86.38;101567.72;6106379;23;20566;-76
2021/12/10 03:31:54;;;;;;;20.00;13.50;;;;;;;-16.39;86.01;101567.47;6180323;23;20017;-77
2021/12/10 03:34:20;;;;;;;11.45;8.52;;;;;;;-16.43;86.05;101565.47;6153562;23;20021;-78
2021/12/10 03:36:47;;;;;;;16.20;9.82;;;;;;;-16.50;86.17;101560.75;6159387;23;20028;-77
2021/12/10 03:39:14;;;;;;;14.63;10.13;;;;;;;-16.43;86.40;101572.09;6130551;23;20021;-76
2021/12/10 03:41:40;;;;;;;17.75;13.48;;;;;;;-16.47;86.50;101568.47;6104977;23;20021;-78
2021/12/10 03:44:06;;;;;;;14.82;8.85;;;;;;;-16.39;86.44;101581.59;6179993;23;20095;-78
2021/12/10 03:46:32;;;;;;;25.17;15.02;;;;;;;-16.40;86.69;101584.81;6128825;23;20419;-78
2021/12/10 03:49:03;;;;;;;10.90;7.90;;;;;;;-16.40;86.48;101585.69;6179993;23;20017;-77
2021/12/10 03:51:29;;;;;;;19.20;11.13;;;;;;;-16.38;86.74;101591.69;6179812;23;20021;-78
2021/12/10 03:53:55;;;;;;;22.20;13.18;;;;;;;-16.43;86.83;101580.47;6179521;23;20535;-76
2021/12/10 03:56:23;;;;;;;15.75;11.20;;;;;;;-16.46;87.37;101566.13;6079231;23;20119;-76
2021/12/10 03:58:49;;;;;;;12.02;7.22;;;;;;;-16.30;87.15;101590.66;6127982;23;20477;-75
2021/12/10 04:01:16;;;;;;;17.65;11.98;;;;;;;-16.32;86.78;101593.78;6127942;23;20461;-75
2021/12/10 04:03:43;;;;;;;17.95;11.10;;;;;;;-16.31;86.71;101595.53;6126605;23;20048;-75
2021/12/10 04:06:09;;;;;;;18.05;10.32;;;;;;;-16.31;86.68;101590.53;6181496;23;20020;-75
2021/12/10 04:08:35;;;;;;;14.10;11.13;;;;;;;-16.35;86.85;101599.41;6179390;23;20021;-76
2021/12/10 04:11:00;;;;;;;10.15;8.82;;;;;;;-16.32;86.70;101596.28;6128582;23;20013;-76
2021/12/10 04:13:27;;;;;;;17.52;10.80;;;;;;;-16.33;86.86;101592.94;6154204;23;20017;-75
2021/12/10 04:15:53;;;;;;;7.57;5.57;;;;;;;-16.33;86.88;101592.94;6128502;23;20480;-73
2021/12/10 04:18:19;;;;;;;24.75;15.27;;;;;;;-16.35;87.08;101591.91;6135521;23;20021;-75
2021/12/10 04:20:46;;;;;;;14.18;8.15;;;;;;;-16.35;86.69;101588.53;6180757;23;20024;-75
2021/12/10 04:23:14;;;;;;;22.38;12.23;;;;;;;-16.36;86.90;101592.69;6135623;23;20044;-75
2021/12/10 04:25:40;;;;;;;35.70;21.38;;;;;;;-16.35;86.36;101589.41;6132077;23;20021;-76
2021/12/10 04:28:08;;;;;;;24.60;14.68;;;;;;;-16.39;86.70;101596.56;6178132;23;20016;-78
2021/12/10 04:30:39;;;;;;;21.88;13.35;;;;;;;-16.45;86.45;101589.44;6154238;23;20032;-79
2021/12/10 04:33:10;;;;;;;32.60;15.52;;;;;;;-16.37;86.48;101595.06;6177632;23;20025;-78
2021/12/10 04:35:37;;;;;;;33.80;16.70;;;;;;;-16.37;86.37;101595.06;6176465;23;20438;-78
2021/12/10 04:38:03;;;;;;;31.45;14.40;;;;;;;-16.48;86.35;101585.09;6176447;23;20272;-78
2021/12/10 04:40:30;;;;;;;32.70;17.95;;;;;;;-16.50;86.46;101588.22;6176742;23;20027;-78
2021/12/10 04:42:57;;;;;;;28.73;16.50;;;;;;;-16.37;86.06;101595.94;6126845;23;20067;-78
2021/12/10 04:45:24;;;;;;;34.38;19.08;;;;;;;-16.40;86.09;101595.69;6150750;23;20021;-78
2021/12/10 04:47:50;;;;;;;23.55;13.32;;;;;;;-16.42;86.13;101608.81;6127876;23;20393;-78
2021/12/10 04:50:18;;;;;;;37.35;18.60;;;;;;;-16.49;86.31;101598.31;6177385;23;20009;-78
2021/12/10 04:52:44;;;;;;;24.50;13.73;;;;;;;-16.48;86.33;101601.69;6153486;23;20021;-78
2021/12/10 04:55:11;;;;;;;31.70;16.13;;;;;;;-16.47;86.25;101610.94;6178102;23;20039;-78
2021/12/10 04:57:38;;;;;;;32.28;18.05;;;;;;;-16.57;86.37;101596.00;6178017;23;20044;-79
2021/12/10 05:00:05;;;;;;;7.93;7.20;;;;;;;-16.55;86.56;101610.34;6153098;23;20024;-78
2021/12/10 05:02:33;;;;;;;29.45;16.50;;;;;;;-16.73;85.92;101590.53;6154738;23;20021;-79
2021/12/10 05:04:59;;;;;;;15.32;10.38;;;;;;;-16.59;85.98;101618.38;6153464;23;20013;-78
2021/12/10 05:07:29;;;;;;;23.05;13.57;;;;;;;-16.62;86.43;101632.22;6178823;23;20017;-79
2021/12/10 05:09:57;;;;;;;13.60;9.57;;;;;;;-16.67;86.09;101628.47;6129824;23;20108;-78
2021/12/10 05:12:23;;;;;;;18.52;12.07;;;;;;;-16.63;85.73;101637.97;6153594;23;20079;-78
2021/12/10 05:14:57;;;;;;;26.70;14.70;;;;;;;-16.67;85.92;101630.97;6178197;23;20021;-78
2021/12/10 05:17:27;;;;;;;32.83;17.88;;;;;;;-16.75;85.61;101624.50;6177676;23;20096;-78
2021/12/10 05:19:53;;;;;;;32.85;18.27;;;;;;;-16.80;85.61;101635.72;6153969;23;20547;-77
2021/12/10 05:22:19;;;;;;;26.08;14.38;;;;;;;-16.74;86.00;101633.72;6153425;23;20012;-78
2021/12/10 05:24:46;;;;;;;30.17;17.08;;;;;;;-16.90;85.84;101615.75;6128857;23;20017;-77
2021/12/10 05:27:13;;;;;;;35.35;18.77;;;;;;;-16.88;85.77;101612.59;6080657;23;20079;-78
2021/12/10 05:29:39;;;;;;;24.67;11.27;;;;;;;-16.86;85.31;101628.59;6129195;23;20020;-77
2021/12/10 05:32:06;;;;;;;30.45;14.80;;;;;;;-16.84;85.86;101626.22;6153684;23;20457;-77
2021/12/10 05:34:32;;;;;;;25.58;12.63;;;;;;;-16.89;85.49;101615.88;6153585;23;20179;-78
2021/12/10 05:36:59;;;;;;;36.67;19.52;;;;;;;-16.88;85.20;101626.75;6128817;23;20048;-78
2021/12/10 05:39:25;;;;;;;29.15;16.08;;;;;;;-16.88;85.54;101624.25;6154902;23;20028;-78
2021/12/10 05:41:52;;;;;;;30.60;17.13;;;;;;;-16.98;85.53;101614.25;6159694;23;20306;-79
2021/12/10 05:44:18;;;;;;;22.77;13.25;;;;;;;-16.91;85.65;101626.50;6105274;23;20066;-77
2021/12/10 05:46:45;;;;;;;41.42;22.33;;;;;;;-16.87;85.36;101638.44;6105956;23;20029;-78
2021/12/10 05:49:12;;;;;;;12.35;9.70;;;;;;;-16.94;85.24;101633.69;6158889;23;20096;-78
2021/12/10 05:51:40;;;;;;;13.48;11.10;;;;;;;-16.89;85.15;101640.84;6138208;23;20027;-81
2021/12/10 05:54:08;;;;;;;14.00;7.10;;;;;;;-16.93;85.27;101632.97;6087331;23;20021;-78
2021/12/10 05:56:35;;;;;;;5.90;5.32;;;;;;;-16.83;85.22;101651.31;6111278;23;20736;-75
2021/12/10 05:59:02;;;;;;;7.88;7.18;;;;;;;-16.57;85.18;101665.94;6134579;23;20388;-77
2021/12/10 06:01:28;;;;;;;16.40;8.70;;;;;;;-16.26;84.13;101635.13;6109359;23;20017;-82
2021/12/10 06:03:55;;;;;;;6.63;5.43;;;;;;;-15.60;83.11;101656.16;6138725;23;20052;-79
2021/12/10 06:06:31;;;;;;;5.35;4.82;;;;;;;-15.40;80.64;101658.53;6156999;23;20049;-81
2021/12/10 06:08:58;;;;;;;8.57;7.85;;;;;;;-15.27;79.82;101643.72;6107880;23;20524;-80
2021/12/10 06:11:28;;;;;;;23.55;11.10;;;;;;;-14.68;77.90;101658.19;6131737;23;20032;-75
2021/12/10 06:14:20;;;;;;;7.18;6.55;;;;;;;-14.35;75.48;101664.81;6135193;23;20025;-76
2021/12/10 06:19:45;;;;;;;14.70;9.30;;;;;;;-14.33;72.83;101656.59;6153744;23;20075;-79
2021/12/10 06:22:16;;;;;;;23.52;14.63;;;;;;;-14.81;74.62;101670.56;6132917;23;20103;-77
2021/12/10 06:24:52;;;;;;;28.13;14.48;;;;;;;-16.08;78.71;101681.59;6136200;23;20144;-80
2021/12/10 06:27:19;;;;;;;21.33;13.73;;;;;;;-16.28;80.39;101685.72;6145118;23;20112;-77
2021/12/10 06:29:50;;;;;;;32.13;19.60;;;;;;;-16.73;81.66;101636.34;6113815;23;20025;-81
2021/12/10 06:32:16;;;;;;;54.15;23.90;;;;;;;-16.63;82.11;101656.31;6185448;23;20365;-81
2021/12/10 06:34:42;;;;;;;54.05;19.55;;;;;;;-16.69;83.25;101632.47;6169456;23;20024;-79
2021/12/10 06:37:08;;;;;;;71.60;27.50;;;;;;;-16.37;82.90;101688.38;6129415;23;20021;-78
2021/12/10 06:39:34;;;;;;;54.60;23.38;;;;;;;-16.51;82.75;101669.75;6182099;23;20025;-78
2021/12/10 06:42:04;;;;;;;24.92;12.57;;;;;;;-16.33;82.88;101687.88;6140376;23;20373;-77
2021/12/10 06:44:31;;;;;;;8.57;7.43;;;;;;;-16.24;82.84;101665.25;6116844;23;20021;-79
2021/12/10 06:47:05;;;;;;;19.92;13.95;;;;;;;-15.50;80.21;101667.00;6168650;23;20271;-81
2021/12/10 06:49:37;;;;;;;15.35;9.95;;;;;;;-14.16;76.13;101687.91;6132806;23;20013;-76
2021/12/10 06:52:07;;;;;;;29.63;14.02;;;;;;;-13.65;72.04;101685.78;6129931;23;20075;-76
2021/12/10 06:54:41;;;;;;;24.35;13.73;;;;;;;-13.74;72.64;101699.31;6156917;23;20330;-76
2021/12/10 06:57:12;;;;;;;18.25;11.75;;;;;;;-12.93;68.16;101691.59;6108753;23;20021;-75
2021/12/10 06:59:50;;;;;;;21.95;11.55;;;;;;;-14.10;70.21;101662.44;6156042;23;20259;-76
2021/12/10 07:02:16;;;;;;;27.20;13.00;;;;;;;-14.98;74.52;101671.81;6105366;23;20021;-75
2021/12/10 07:04:42;;;;;;;21.17;12.30;;;;;;;-14.38;73.82;101664.59;6153666;23;20027;-75
2021/12/10 07:07:09;;;;;;;27.65;15.63;;;;;;;-14.65;73.90;101667.56;6154129;23;20531;-75
2021/12/10 07:09:35;;;;;;;28.92;15.52;;;;;;;-14.87;74.71;101676.00;6179997;23;20025;-75
2021/12/10 07:12:01;;;;;;;30.60;17.60;;;;;;;-14.30;75.13;101688.56;6153731;23;20072;-75
2021/12/10 07:14:28;;;;;;;30.63;19.88;;;;;;;-14.78;75.39;101689.97;6178793;23;20023;-75
2021/12/10 07:16:54;;;;;;;29.27;17.05;;;;;;;-13.71;73.16;101676.94;6104772;23;20301;-76
2021/12/10 07:19:20;;;;;;;25.75;16.33;;;;;;;-13.55;71.99;101689.78;6104472;23;20021;-76
2021/12/10 07:21:46;;;;;;;15.77;9.02;;;;;;;-13.27;71.79;101686.78;6178185;23;20135;-75
2021/12/10 07:24:23;;;;;;;15.77;9.70;;;;;;;-12.06;67.09;101650.41;6111147;23;20013;-76
2021/12/10 07:26:51;;;;;;;20.13;11.02;;;;;;;-12.55;67.14;101666.47;6129018;23;20036;-76
2021/12/10 07:29:17;;;;;;;8.02;4.35;;;;;;;-11.74;64.76;101658.34;6129165;23;20087;-76
2021/12/10 07:31:43;;;;;;;6.30;5.78;;;;;;;-10.94;62.79;101659.91;6153527;23;20452;-76
2021/12/10 07:34:10;;;;;;;9.35;8.13;;;;;;;-10.80;62.02;101682.66;6180827;23;20488;-76
2021/12/10 07:36:37;;;;;;;11.10;8.30;;;;;;;-10.51;61.87;101671.75;6129508;23;20027;-78
2021/12/10 07:39:07;;;;;;;13.70;10.27;;;;;;;-10.47;60.95;101681.25;6183114;23;20021;-76
2021/12/10 07:41:34;;;;;;;8.27;7.45;;;;;;;-10.95;62.49;101679.22;6158476;23;20017;-76
2021/12/10 07:44:01;;;;;;;14.77;8.18;;;;;;;-10.68;60.17;101650.59;6155177;23;20051;-76
2021/12/10 07:46:28;;;;;;;18.90;9.90;;;;;;;-10.18;59.79;101677.88;6157902;23;20275;-77
2021/12/10 07:48:54;;;;;;;18.60;5.50;;;;;;;-10.45;59.50;101678.81;6129459;23;20070;-77
2021/12/10 07:51:23;;;;;;;7.22;6.53;;;;;;;-9.66;57.81;101677.47;6104435;23;20013;-79
2021/12/10 07:53:51;;;;;;;18.50;9.32;;;;;;;-9.35;57.24;101681.63;6178284;23;20122;-77
2021/12/10 07:56:18;;;;;;;15.90;8.98;;;;;;;-8.41;53.61;101668.91;6105532;23;20013;-75
2021/12/10 07:58:45;;;;;;;12.52;8.65;;;;;;;-8.59;54.57;101692.47;6178004;23;20102;-76
2021/12/10 08:01:14;;;;;;;11.93;7.65;;;;;;;-9.94;57.78;101681.75;6128946;23;20020;-76
2021/12/10 08:03:40;;;;;;;15.25;8.70;;;;;;;-8.98;58.68;101685.34;6080061;23;20027;-76
2021/12/10 08:06:07;;;;;;;14.75;9.15;;;;;;;-9.03;57.04;101681.72;6179588;23;20029;-76
2021/12/10 08:08:49;;;;;;;13.15;9.57;;;;;;;-8.66;55.60;101670.16;6129268;23;20030;-76
2021/12/10 08:11:15;;;;;;;17.77;10.90;;;;;;;-9.52;58.14;101688.34;6127505;23;20020;-76
2021/12/10 08:13:41;;;;;;;10.88;8.73;;;;;;;-9.86;60.76;101665.38;6177244;23;20021;-77
2021/12/10 08:16:07;;;;;;;6.07;5.50;;;;;;;-10.13;60.44;101671.41;6104505;23;20116;-76
2021/12/10 08:18:33;;;;;;;13.82;8.98;;;;;;;-10.07;60.80;101674.25;6152722;23;20400;-76
2021/12/10 08:21:04;;;;;;;15.85;10.52;;;;;;;-9.79;60.41;101681.75;6128288;23;20017;-77
2021/12/10 08:23:31;;;;;;;12.57;9.05;;;;;;;-9.34;59.27;101664.03;6127729;23;20349;-76
2021/12/10 08:26:00;;;;;;;13.18;10.85;;;;;;;-7.26;52.93;101632.16;6128669;23;20028;-76
2021/12/10 08:28:52;;;;;;;19.73;10.27;;;;;;;-8.70;56.29;101655.63;6162256;23;20025;-80
2021/12/10 08:31:18;;;;;;;9.48;7.50;;;;;;;-8.56;56.54;101677.44;6105974;23;20479;-77
2021/12/10 08:33:47;;;;;;;5.75;4.78;;;;;;;-9.28;57.24;101648.31;6179532;23;20484;-78
2021/12/10 08:36:20;;;;;;;12.82;8.98;;;;;;;-8.65;58.20;101660.91;6106696;23;20021;-79
2021/12/10 08:38:52;;;;;;;5.38;4.55;;;;;;;-8.97;57.17;101676.97;6154670;23;20024;-78
2021/12/10 08:41:23;;;;;;;14.45;10.23;;;;;;;-9.17;59.18;101692.75;6152582;23;20017;-78
2021/12/10 08:43:50;;;;;;;9.77;8.23;;;;;;;-9.38;60.61;101681.47;6129095;23;20032;-79
2021/12/10 08:46:17;;;;;;;10.45;7.30;;;;;;;-9.57;60.55;101670.38;6180121;23;20468;-79
2021/12/10 08:48:47;;;;;;;11.75;8.52;;;;;;;-9.73;60.96;101667.81;6100964;23;20428;-78
2021/12/10 08:51:29;;;;;;;6.35;5.68;;;;;;;-10.62;63.68;101645.91;6124579;23;20506;-78
2021/12/10 08:54:10;;;;;;;15.57;8.75;;;;;;;-9.55;62.02;101667.91;6151868;23;20023;-80
2021/12/10 08:56:37;;;;;;;10.65;9.45;;;;;;;-9.81;61.88;101630.25;6106052;23;20017;-78
2021/12/10 08:59:07;;;;;;;8.95;7.13;;;;;;;-10.43;63.97;101672.19;6177844;23;20080;-79
2021/12/10 09:01:36;;;;;;;11.45;7.57;;;;;;;-9.43;62.86;101675.31;6152107;23;20091;-78
2021/12/10 09:04:04;;;;;;;5.82;4.93;;;;;;;-9.91;62.91;101650.78;6132983;23;20075;-80
2021/12/10 09:06:31;;;;;;;14.65;10.85;;;;;;;-9.66;63.33;101679.13;6160074;23;20020;-78
2021/12/10 09:08:57;;;;;;;19.33;10.55;;;;;;;-11.19;67.06;101687.81;6184736;23;20024;-79
2021/12/10 09:11:24;;;;;;;14.05;8.07;;;;;;;-11.99;70.72;101653.44;6179384;23;20327;-78
2021/12/10 09:13:50;;;;;;;9.77;7.75;;;;;;;-12.54;74.41;101666.59;6152295;23;20048;-78
2021/12/10 09:16:23;;;;;;;16.58;12.20;;;;;;;-12.66;75.06;101647.31;6152497;23;20013;-78
2021/12/10 09:18:49;;;;;;;9.32;7.95;;;;;;;-12.67;75.90;101678.25;6129440;23;20025;-78
2021/12/10 09:21:16;;;;;;;11.52;9.50;;;;;;;-12.62;76.80;101691.97;6127447;23;20103;-79
2021/12/10 09:23:42;;;;;;;22.77;13.98;;;;;;;-12.66;76.10;101690.91;6176289;23;20154;-78
2021/12/10 09:26:14;;;;;;;11.90;6.97;;;;;;;-12.92;76.43;101636.38;6152438;23;20157;-78
2021/12/10 09:28:40;;;;;;;18.98;11.02;;;;;;;-12.78;78.33;101690.09;6105260;23;20092;-78
2021/12/10 09:31:06;;;;;;;6.53;5.93;;;;;;;-12.67;77.46;101689.19;6154135;23;20027;-78
2021/12/10 09:33:33;;;;;;;4.68;4.28;;;;;;;-12.81;77.69;101655.59;6130224;23;20048;-78
2021/12/10 09:35:59;;;;;;;13.40;5.00;;;;;;;-12.84;78.21;101635.28;6178827;23;20021;-78
2021/12/10 09:38:26;;;;;;;9.18;8.27;;;;;;;-12.58;77.57;101681.38;6129695;23;20338;-78
2021/12/10 09:40:58;;;;;;;5.30;4.43;;;;;;;-12.51;78.60;101684.41;6105396;23;20067;-79
2021/12/10 09:43:25;;;;;;;9.13;7.35;;;;;;;-12.47;78.14;101637.69;6182646;23;20029;-78
2021/12/10 09:45:55;;;;;;;6.93;6.28;;;;;;;-12.57;78.22;101657.97;6132231;23;20381;-78
2021/12/10 09:48:23;;;;;;;14.55;8.85;;;;;;;-12.48;78.71;101661.97;6183601;23;20017;-79
2021/12/10 09:50:59;;;;;;;17.60;11.20;;;;;;;-12.18;78.75;101685.75;6110330;23;20021;-78
2021/12/10 09:53:27;;;;;;;8.30;5.85;;;;;;;-12.39;78.46;101666.72;6133237;23;20017;-78
2021/12/10 09:55:57;;;;;;;13.93;7.55;;;;;;;-12.42;77.80;101641.38;6108146;23;20024;-77
2021/12/10 09:58:23;;;;;;;4.53;4.13;;;;;;;-12.41;78.73;101664.13;6132179;23;20096;-78
2021/12/10 10:00:53;;;;;;;7.38;6.28;;;;;;;-12.12;78.69;101683.63;6156560;23;20251;-78
2021/12/10 10:03:22;;;;;;;11.52;8.18;;;;;;;-12.21;79.06;101637.75;6182746;23;20017;-81
2021/12/10 10:05:48;;;;;;;4.90;4.45;;;;;;;-12.21;78.51;101667.94;6156268;23;20028;-75
2021/12/10 10:08:17;;;;;;;12.65;10.05;;;;;;;-12.00;79.84;101694.47;6107049;23;20021;-75
2021/12/10 10:10:47;;;;;;;5.90;4.85;;;;;;;-11.89;77.96;101688.47;6181171;23;20520;-77
2021/12/10 10:13:16;;;;;;;7.65;6.60;;;;;;;-11.93;78.82;101660.50;6142521;23;20024;-81
2021/12/10 10:15:42;;;;;;;9.98;8.63;;;;;;;-11.89;79.09;101644.81;6190193;23;20028;-81
2021/12/10 10:18:11;;;;;;;5.40;4.07;;;;;;;-11.93;78.15;101641.22;6156566;23;20428;-78
2021/12/10 10:20:39;;;;;;;8.10;6.15;;;;;;;-11.74;78.71;101659.22;6180126;23;20016;-77
2021/12/10 10:23:06;;;;;;;14.15;9.77;;;;;;;-11.72;78.14;101647.63;6131168;23;20079;-77
2021/12/10 10:25:33;;;;;;;10.55;8.85;;;;;;;-11.66;79.04;101688.25;6182039;23;20112;-76
2021/12/10 10:27:59;;;;;;;10.48;7.60;;;;;;;-11.57;77.92;101662.78;6130674;23;20024;-76
2021/12/10 10:30:31;;;;;;;10.05;8.88;;;;;;;-11.74;78.49;101654.19;6155733;23;20017;-77
2021/12/10 10:33:04;;;;;;;14.05;8.90;;;;;;;-11.60;78.18;101651.63;6155440;23;20025;-78
2021/12/10 10:35:38;;;;;;;11.50;8.82;;;;;;;-11.67;78.65;101656.28;6154762;23;20020;-77
2021/12/10 10:38:05;;;;;;;16.20;12.38;;;;;;;-11.40;78.27;101671.38;6107786;23;20021;-77
2021/12/10 10:40:34;;;;;;;8.27;6.78;;;;;;;-11.46;78.41;101683.59;6155548;23;20111;-77
2021/12/10 10:43:00;;;;;;;7.60;6.35;;;;;;;-11.54;78.77;101652.00;6082666;23;20021;-76
2021/12/10 10:45:29;;;;;;;10.77;9.45;;;;;;;-11.12;77.84;101705.03;6179936;23;20021;-77
2021/12/10 10:47:57;;;;;;;11.07;6.70;;;;;;;-11.36;77.58;101678.34;6108044;23;20464;-76
2021/12/10 10:50:26;;;;;;;5.50;5.07;;;;;;;-11.17;77.69;101707.28;6132213;23;20009;-77
2021/12/10 10:52:55;;;;;;;6.00;5.43;;;;;;;-11.40;78.67;101681.44;6131471;23;20016;-77
2021/12/10 10:55:53;;;;;;;11.07;6.65;;;;;;;-11.13;78.39;101703.31;6107178;23;20013;-77
2021/12/10 10:58:19;;;;;;;10.27;5.78;;;;;;;-11.15;77.93;101687.22;6177605;23;20017;-78
2021/12/10 11:00:59;;;;;;;8.73;6.55;;;;;;;-11.23;78.39;101679.19;6106407;23;20021;-79
2021/12/10 11:03:36;;;;;;;7.20;6.57;;;;;;;-11.03;78.07;101693.00;6181229;23;20016;-79
2021/12/10 11:06:04;;;;;;;15.15;10.30;;;;;;;-10.96;77.85;101692.59;6108784;23;20024;-79
2021/12/10 11:08:56;;;;;;;7.85;7.00;;;;;;;-11.13;78.11;101663.00;6155835;23;20051;-80
2021/12/10 11:11:25;;;;;;;7.07;3.70;;;;;;;-11.00;77.73;101699.88;6127401;23;20072;-79
2021/12/10 11:14:07;;;;;;;8.75;6.20;;;;;;;-11.16;78.28;101670.38;6130027;23;20021;-79
2021/12/10 11:16:36;;;;;;;3.42;3.20;;;;;;;-10.94;77.59;101703.66;6163264;23;20105;-84
2021/12/10 11:19:24;;;;;;;7.00;6.30;;;;;;;-11.05;78.19;101689.50;6149656;23;20028;-81
2021/12/10 11:22:01;;;;;;;7.47;6.75;;;;;;;-10.92;78.44;101707.13;6166350;23;20021;-80
2021/12/10 11:24:55;;;;;;;7.93;5.70;;;;;;;-11.02;78.56;101684.66;6144953;23;20085;-80
2021/12/10 11:27:30;;;;;;;7.05;4.32;;;;;;;-10.95;78.18;101694.34;6151509;23;20005;-82
2021/12/10 11:30:03;;;;;;;6.60;6.00;;;;;;;-11.07;78.27;101688.56;6121566;23;20477;-80